Time;durP1;ratioP1;P1;durP2;ratioP2;P2;SDS_P1;SDS_P2;PMS_P1;PMS_P2;Temp;Humidity;BMP_temperature;BMP_pressure;BME280_temperature;BME280_humidity;BME280_pressure;Samples;Min_cycle;Max_cycle;Signal;HPM_P1;HPM_P2
2022/01/21 00:00:52;;;;;;;0.00;0.00;;;4.50;72.20;;;;;;4178499;28;20051;-59
2022/01/21 00:03:15;;;;;;;0.00;0.00;;;4.40;71.90;;;;;;4180683;28;20474;-59
2022/01/21 00:05:37;;;;;;;0.00;0.00;;;4.40;72.10;;;;;;4168654;28;20056;-58
2022/01/21 00:07:59;;;;;;;0.00;0.00;;;4.30;71.20;;;;;;4178941;28;20079;-59
2022/01/21 00:10:22;;;;;;;0.00;0.00;;;4.20;71.60;;;;;;4165106;28;20053;-60
2022/01/21 00:12:47;;;;;;;0.00;0.00;;;4.20;71.60;;;;;;4180632;28;20049;-60
2022/01/21 00:15:13;;;;;;;0.00;0.00;;;4.10;71.60;;;;;;4180528;28;20593;-59
2022/01/21 00:17:35;;;;;;;0.00;0.00;;;4.00;71.40;;;;;;4180498;28;20528;-59
2022/01/21 00:30:41;;;;;;;0.00;0.00;;;4.10;70.60;;;;;;4161634;28;20133;-57
2022/01/21 00:33:04;;;;;;;0.00;0.00;;;4.10;70.40;;;;;;4163512;28;20099;-59
2022/01/21 00:35:27;;;;;;;0.00;0.00;;;4.10;70.40;;;;;;4171479;28;20053;-58
2022/01/21 00:37:51;;;;;;;0.00;0.00;;;4.10;70.50;;;;;;4177217;28;20045;-58
2022/01/21 00:40:17;;;;;;;0.00;0.00;;;4.10;70.60;;;;;;4193688;28;20048;-58
2022/01/21 00:45:03;;;;;;;0.00;0.00;;;4.20;70.30;;;;;;4194122;28;20072;-58
2022/01/21 00:47:29;;;;;;;0.00;0.00;;;4.30;70.10;;;;;;4180011;28;20044;-60
2022/01/21 00:49:51;;;;;;;0.00;0.00;;;4.10;70.10;;;;;;4179893;28;20051;-59
2022/01/21 00:52:13;;;;;;;0.00;0.00;;;4.20;70.50;;;;;;4179323;28;20119;-60
2022/01/21 00:54:37;;;;;;;0.00;0.00;;;4.30;70.10;;;;;;4166033;28;20041;-59
2022/01/21 00:56:59;;;;;;;0.00;0.00;;;4.50;70.10;;;;;;4179684;28;20045;-59
2022/01/21 00:59:22;;;;;;;0.00;0.00;;;4.50;70.00;;;;;;4179875;28;20839;-61
2022/01/21 01:01:44;;;;;;;0.00;0.00;;;4.60;69.90;;;;;;4179553;28;20048;-59
2022/01/21 01:04:07;;;;;;;0.00;0.00;;;4.50;69.50;;;;;;4180905;28;20123;-59
2022/01/21 01:06:33;;;;;;;0.00;0.00;;;4.50;69.90;;;;;;4180108;28;20465;-60
2022/01/21 01:08:56;;;;;;;0.00;0.00;;;4.60;69.80;;;;;;4180675;28;20049;-58
2022/01/21 01:20:00;;;;;;;0.00;0.00;;;4.60;69.80;;;;;;4166808;28;20527;-59
2022/01/21 01:28:01;;;;;;;0.00;0.00;;;4.60;69.40;;;;;;4180537;28;20045;-59
2022/01/21 01:30:31;;;;;;;0.00;0.00;;;4.70;69.40;;;;;;4179905;28;20077;-60
2022/01/21 01:33:01;;;;;;;0.00;0.00;;;4.70;69.30;;;;;;4172484;28;20050;-60
2022/01/21 01:35:33;;;;;;;0.00;0.00;;;4.80;69.30;;;;;;4162767;28;20053;-60
2022/01/21 01:40:56;;;;;;;0.00;0.00;;;4.70;69.50;;;;;;4166295;28;20490;-60
2022/01/21 01:51:34;;;;;;;0.00;0.00;;;4.60;70.00;;;;;;4178689;28;20040;-59
2022/01/21 01:54:10;;;;;;;0.00;0.00;;;4.60;70.20;;;;;;4180138;28;20056;-60
2022/01/21 01:56:52;;;;;;;0.00;0.00;;;4.60;70.40;;;;;;4179590;28;20037;-59
2022/01/21 01:59:32;;;;;;;0.00;0.00;;;4.60;70.60;;;;;;4178677;28;20044;-59
2022/01/21 02:02:17;;;;;;;0.00;0.00;;;4.60;70.80;;;;;;4179026;28;20053;-59
2022/01/21 02:04:46;;;;;;;0.00;0.00;;;4.70;70.80;;;;;;4177745;28;20041;-59
2022/01/21 02:07:22;;;;;;;0.00;0.00;;;4.70;70.90;;;;;;4172792;28;20044;-59
2022/01/21 02:09:46;;;;;;;0.00;0.00;;;4.60;70.90;;;;;;4178490;28;20513;-59
2022/01/21 02:12:11;;;;;;;0.00;0.00;;;4.60;71.00;;;;;;4179158;28;20045;-60
2022/01/21 02:14:49;;;;;;;0.00;0.00;;;4.50;71.00;;;;;;4163303;28;20124;-59
2022/01/21 02:22:56;;;;;;;0.00;0.00;;;4.50;71.10;;;;;;4162425;28;20053;-58
2022/01/21 02:25:29;;;;;;;0.00;0.00;;;4.50;71.30;;;;;;4163107;28;20400;-59
2022/01/21 02:28:02;;;;;;;0.00;0.00;;;4.50;71.40;;;;;;4161912;28;20111;-60
2022/01/21 02:30:55;;;;;;;0.00;0.00;;;4.50;71.60;;;;;;4165352;28;20045;-59
2022/01/21 02:33:18;;;;;;;0.00;0.00;;;4.60;71.50;;;;;;4191822;28;20048;-59
2022/01/21 02:35:40;;;;;;;0.00;0.00;;;4.70;71.40;;;;;;4178348;28;20041;-59
2022/01/21 02:38:03;;;;;;;0.00;0.00;;;4.70;71.20;;;;;;4178306;28;20567;-59
2022/01/21 02:40:27;;;;;;;0.00;0.00;;;4.70;71.40;;;;;;4161352;28;20069;-59
2022/01/21 02:42:51;;;;;;;0.00;0.00;;;4.70;71.30;;;;;;4161861;28;20037;-59
2022/01/21 02:45:15;;;;;;;0.00;0.00;;;4.70;71.20;;;;;;4161753;28;20045;-59
2022/01/21 02:47:37;;;;;;;0.00;0.00;;;4.70;71.30;;;;;;4147827;28;20088;-59
2022/01/21 02:49:59;;;;;;;0.00;0.00;;;4.70;71.30;;;;;;4162655;28;20090;-59
2022/01/21 02:52:25;;;;;;;0.00;0.00;;;4.60;71.30;;;;;;4148781;28;20097;-59
2022/01/21 02:54:48;;;;;;;0.00;0.00;;;4.60;71.30;;;;;;4164348;28;20550;-59
2022/01/21 02:57:10;;;;;;;0.00;0.00;;;4.50;71.20;;;;;;4178046;28;20116;-58
2022/01/21 02:59:33;;;;;;;0.00;0.00;;;4.60;71.40;;;;;;4192024;28;20045;-58
2022/01/21 03:01:55;;;;;;;0.00;0.00;;;4.60;71.50;;;;;;4177814;28;20441;-56
2022/01/21 03:05:07;;;;;;;0.00;0.00;;;4.60;71.40;;;;;;4177524;28;20067;-57
2022/01/21 03:07:05;;;;;;;0.00;0.00;;;4.70;71.50;;;;;;4170425;28;20112;-58
2022/01/21 03:09:27;;;;;;;0.00;0.00;;;4.70;71.50;;;;;;4147281;28;20049;-59
2022/01/21 03:11:50;;;;;;;0.00;0.00;;;4.70;71.60;;;;;;4149432;28;20076;-59
2022/01/21 03:14:12;;;;;;;0.00;0.00;;;4.70;71.70;;;;;;4168754;28;20111;-60
2022/01/21 03:16:45;;;;;;;0.00;0.00;;;4.70;71.80;;;;;;4161480;28;20102;-58
2022/01/21 03:19:08;;;;;;;0.00;0.00;;;4.70;71.90;;;;;;4161302;28;20053;-59
2022/01/21 03:21:30;;;;;;;0.00;0.00;;;4.60;71.90;;;;;;4174209;28;20132;-58
2022/01/21 03:23:55;;;;;;;0.00;0.00;;;4.60;72.00;;;;;;4176503;28;20049;-59
2022/01/21 03:26:23;;;;;;;0.00;0.00;;;4.60;72.00;;;;;;4177380;28;20444;-59
2022/01/21 03:28:49;;;;;;;0.00;0.00;;;4.50;72.10;;;;;;4177781;28;20140;-58
2022/01/21 03:31:13;;;;;;;0.00;0.00;;;4.50;72.10;;;;;;4176124;28;20073;-56
2022/01/21 03:33:35;;;;;;;0.00;0.00;;;4.50;72.10;;;;;;4177593;28;20049;-58
2022/01/21 03:35:58;;;;;;;0.00;0.00;;;4.60;72.00;;;;;;4180184;28;20092;-59
2022/01/21 03:38:25;;;;;;;0.00;0.00;;;4.60;71.80;;;;;;4180559;28;20051;-59
2022/01/21 03:40:47;;;;;;;0.00;0.00;;;4.60;71.80;;;;;;4180666;28;20041;-58
2022/01/21 03:43:12;;;;;;;0.00;0.00;;;4.50;71.70;;;;;;4181107;28;20096;-59
2022/01/21 03:45:35;;;;;;;0.00;0.00;;;4.60;71.50;;;;;;4180945;28;20049;-59
2022/01/21 03:48:00;;;;;;;0.00;0.00;;;4.50;71.70;;;;;;4167130;28;20076;-60
2022/01/21 03:50:30;;;;;;;0.00;0.00;;;4.50;71.80;;;;;;4180377;28;20045;-59
2022/01/21 03:52:53;;;;;;;0.00;0.00;;;4.50;72.00;;;;;;4194794;28;20045;-59
2022/01/21 03:55:15;;;;;;;0.00;0.00;;;4.40;71.70;;;;;;4166958;28;20056;-59
2022/01/21 03:57:38;;;;;;;0.00;0.00;;;4.30;71.50;;;;;;4180788;28;20588;-59
2022/01/21 04:00:00;;;;;;;0.00;0.00;;;4.10;72.40;;;;;;4167123;28;20045;-59
2022/01/21 04:02:23;;;;;;;0.00;0.00;;;4.10;72.50;;;;;;4124495;28;20050;-59
2022/01/21 04:04:46;;;;;;;0.00;0.00;;;4.20;72.30;;;;;;4180717;28;20036;-59
2022/01/21 04:07:09;;;;;;;0.00;0.00;;;4.20;72.40;;;;;;4166932;28;20042;-59
2022/01/21 04:09:36;;;;;;;0.00;0.00;;;4.30;72.70;;;;;;4180472;28;20495;-59
2022/01/21 04:11:59;;;;;;;0.00;0.00;;;4.30;72.50;;;;;;4166456;28;20053;-59
2022/01/21 04:14:21;;;;;;;0.00;0.00;;;4.40;72.50;;;;;;4166180;28;20052;-59
2022/01/21 04:16:43;;;;;;;0.00;0.00;;;4.40;72.70;;;;;;4166810;28;20418;-59
2022/01/21 04:19:06;;;;;;;0.00;0.00;;;4.40;73.00;;;;;;4180322;28;20095;-58
2022/01/21 04:21:28;;;;;;;0.00;0.00;;;4.30;73.20;;;;;;4180202;28;20506;-59
2022/01/21 04:23:52;;;;;;;0.00;0.00;;;4.20;73.60;;;;;;4180272;28;20047;-60
2022/01/21 04:26:23;;;;;;;;;;;4.20;73.80;;;;;;4166397;28;20041;-60
2022/01/21 04:28:56;;;;;;;0.00;0.00;;;4.20;73.90;;;;;;4166343;28;20432;-59
2022/01/21 04:31:22;;;;;;;0.00;0.00;;;4.20;74.10;;;;;;4166287;28;20915;-60
2022/01/21 04:33:47;;;;;;;0.00;0.00;;;4.10;74.50;;;;;;4166302;28;20049;-59
2022/01/21 04:36:10;;;;;;;0.00;0.00;;;4.10;75.00;;;;;;4152750;28;20049;-60
2022/01/21 04:38:34;;;;;;;0.00;0.00;;;4.20;75.10;;;;;;4193710;28;20043;-59
2022/01/21 04:41:24;;;;;;;0.00;0.00;;;4.20;75.00;;;;;;4179931;28;20049;-59
2022/01/21 04:49:07;;;;;;;0.00;0.00;;;4.20;75.10;;;;;;4166440;28;20088;-60
2022/01/21 04:51:37;;;;;;;0.00;0.00;;;4.20;75.30;;;;;;4166104;28;20456;-59
2022/01/21 04:54:00;;;;;;;0.00;0.00;;;4.10;75.30;;;;;;4166300;28;20121;-59
2022/01/21 04:56:26;;;;;;;0.00;0.00;;;4.10;75.90;;;;;;4179731;28;20064;-59
2022/01/21 04:58:50;;;;;;;0.00;0.00;;;4.00;76.00;;;;;;4166133;28;20045;-59
2022/01/21 05:01:13;;;;;;;0.00;0.00;;;4.00;76.10;;;;;;4165964;28;20042;-59
2022/01/21 05:03:38;;;;;;;0.00;0.00;;;4.10;75.90;;;;;;4152384;28;20112;-58
2022/01/21 05:06:02;;;;;;;0.00;0.00;;;4.20;75.70;;;;;;4150784;28;20076;-59
2022/01/21 05:08:31;;;;;;;0.00;0.00;;;4.20;75.60;;;;;;4165981;28;20050;-58
2022/01/21 05:10:54;;;;;;;0.00;0.00;;;4.20;75.60;;;;;;4193468;28;20560;-58
2022/01/21 05:13:21;;;;;;;0.00;0.00;;;4.20;75.80;;;;;;4179637;28;20037;-59
2022/01/21 05:18:22;;;;;;;0.00;0.00;;;4.20;75.80;;;;;;4179378;28;20497;-59
2022/01/21 05:21:05;;;;;;;0.00;0.00;;;4.20;75.60;;;;;;4165563;28;20047;-59
2022/01/21 05:23:35;;;;;;;0.00;0.00;;;4.30;75.60;;;;;;4165821;28;20052;-59
2022/01/21 05:25:58;;;;;;;0.00;0.00;;;4.10;75.60;;;;;;4165687;28;20288;-59
2022/01/21 05:28:21;;;;;;;0.00;0.00;;;4.10;76.00;;;;;;4165328;28;20137;-59
2022/01/21 05:31:00;;;;;;;0.00;0.00;;;4.10;75.90;;;;;;4165276;28;20136;-58
2022/01/21 05:33:51;;;;;;;0.00;0.00;;;4.10;76.20;;;;;;4179425;28;20068;-59
2022/01/21 05:36:31;;;;;;;0.00;0.00;;;4.10;76.10;;;;;;4165185;28;20049;-59
2022/01/21 05:39:15;;;;;;;0.00;0.00;;;4.20;75.70;;;;;;4179568;28;20545;-59
2022/01/21 05:42:03;;;;;;;0.00;0.00;;;4.20;75.60;;;;;;4156970;28;20064;-60
2022/01/21 05:47:16;;;;;;;0.00;0.00;;;4.20;75.80;;;;;;4179129;28;20111;-58
2022/01/21 05:49:50;;;;;;;0.00;0.00;;;4.10;75.90;;;;;;4195081;28;20075;-58
2022/01/21 05:52:30;;;;;;;;;;;4.10;76.10;;;;;;4179274;28;20045;-59
2022/01/21 05:55:02;;;;;;;0.00;0.00;;;4.10;76.30;;;;;;4179125;28;19925;-60
2022/01/21 05:57:33;;;;;;;0.00;0.00;;;4.00;76.60;;;;;;4178574;28;20055;-59
2022/01/21 05:59:58;;;;;;;0.00;0.00;;;4.00;76.60;;;;;;4179030;28;20079;-60
2022/01/21 06:02:20;;;;;;;0.00;0.00;;;4.10;76.40;;;;;;4164435;28;20049;-59
2022/01/21 06:04:46;;;;;;;0.00;0.00;;;4.20;76.40;;;;;;4174483;28;20053;-59
2022/01/21 06:07:10;;;;;;;0.00;0.00;;;4.20;76.30;;;;;;4170538;28;20049;-59
2022/01/21 06:09:32;;;;;;;0.00;0.00;;;4.10;76.40;;;;;;4165086;28;20056;-59
2022/01/21 06:11:55;;;;;;;0.00;0.00;;;4.10;76.40;;;;;;4164686;28;20470;-59
2022/01/21 06:14:18;;;;;;;0.00;0.00;;;4.10;76.80;;;;;;4178345;28;20057;-60
2022/01/21 06:16:40;;;;;;;0.00;0.00;;;4.10;77.10;;;;;;4164785;28;20060;-60
2022/01/21 06:19:03;;;;;;;0.00;0.00;;;4.00;77.00;;;;;;4178663;28;20119;-59
2022/01/21 06:21:25;;;;;;;0.00;0.00;;;4.10;77.10;;;;;;4178438;28;20493;-60
2022/01/21 06:23:48;;;;;;;0.00;0.00;;;4.00;77.10;;;;;;4178552;28;20128;-61
2022/01/21 06:26:10;;;;;;;0.00;0.00;;;4.00;77.10;;;;;;4178686;28;20079;-60
2022/01/21 06:28:33;;;;;;;0.00;0.00;;;4.00;77.00;;;;;;4178126;28;20402;-60
2022/01/21 06:30:55;;;;;;;0.00;0.00;;;3.90;76.70;;;;;;4178332;28;20080;-60
2022/01/21 06:33:20;;;;;;;0.00;0.00;;;3.90;76.70;;;;;;4178301;28;20057;-60
2022/01/21 06:35:43;;;;;;;0.00;0.00;;;3.80;76.90;;;;;;4178335;28;20076;-59
2022/01/21 06:38:05;;;;;;;0.00;0.00;;;3.80;77.10;;;;;;4192486;28;20127;-60
2022/01/21 06:40:28;;;;;;;0.00;0.00;;;3.70;77.30;;;;;;4178131;28;20076;-59
2022/01/21 06:42:53;;;;;;;0.00;0.00;;;3.70;77.50;;;;;;4172786;28;20096;-59
2022/01/21 06:45:15;;;;;;;0.00;0.00;;;3.60;77.70;;;;;;4168098;28;20457;-60
2022/01/21 06:47:38;;;;;;;0.00;0.00;;;3.60;77.60;;;;;;4173781;28;20049;-60
2022/01/21 06:50:00;;;;;;;0.00;0.00;;;3.60;78.00;;;;;;4164652;28;20041;-58
2022/01/21 06:52:22;;;;;;;0.00;0.00;;;3.20;79.10;;;;;;4177840;28;20059;-57
2022/01/21 06:54:45;;;;;;;0.00;0.00;;;3.00;80.00;;;;;;4178505;28;20124;-58
2022/01/21 06:57:08;;;;;;;0.00;0.00;;;2.80;80.80;;;;;;4178362;28;20176;-58
2022/01/21 06:59:30;;;;;;;0.00;0.00;;;2.70;81.60;;;;;;4167459;28;20049;-59
2022/01/21 07:01:54;;;;;;;0.00;0.00;;;2.80;81.70;;;;;;4161617;28;20050;-58
2022/01/21 07:04:16;;;;;;;0.00;0.00;;;2.80;81.50;;;;;;4162176;28;20045;-58
2022/01/21 07:06:38;;;;;;;0.00;0.00;;;2.80;81.80;;;;;;4178211;28;20135;-57
2022/01/21 07:09:01;;;;;;;0.00;0.00;;;2.90;81.60;;;;;;4177921;28;20144;-59
2022/01/21 07:11:23;;;;;;;0.00;0.00;;;2.80;81.80;;;;;;4167186;28;20069;-59
2022/01/21 07:13:46;;;;;;;0.00;0.00;;;2.80;82.00;;;;;;4181519;28;20538;-60
2022/01/21 07:16:08;;;;;;;0.00;0.00;;;2.90;81.60;;;;;;4181647;28;20049;-61
2022/01/21 07:18:30;;;;;;;0.00;0.00;;;3.00;81.40;;;;;;4181068;28;20079;-58
2022/01/21 07:20:53;;;;;;;0.00;0.00;;;3.10;80.90;;;;;;4181329;28;20080;-58
2022/01/21 07:23:16;;;;;;;0.00;0.00;;;3.00;80.90;;;;;;4181479;28;20125;-58
2022/01/21 07:25:38;;;;;;;0.00;0.00;;;3.10;80.60;;;;;;4181490;28;20053;-59
2022/01/21 07:28:00;;;;;;;0.00;0.00;;;3.00;80.40;;;;;;4181289;28;20056;-59
2022/01/21 07:30:23;;;;;;;0.00;0.00;;;3.10;80.30;;;;;;4139095;28;20050;-60
2022/01/21 07:32:54;;;;;;;0.00;0.00;;;3.00;80.40;;;;;;4209349;28;20055;-60
2022/01/21 07:35:17;;;;;;;0.00;0.00;;;3.20;80.10;;;;;;4181418;28;20049;-61
2022/01/21 07:37:59;;;;;;;0.00;0.00;;;3.20;79.80;;;;;;4181093;28;20048;-59
2022/01/21 07:40:21;;;;;;;0.00;0.00;;;3.10;79.90;;;;;;4180905;28;20083;-60
2022/01/21 07:42:44;;;;;;;0.00;0.00;;;2.90;80.20;;;;;;4209279;28;20131;-60
2022/01/21 07:45:06;;;;;;;0.00;0.00;;;2.80;80.50;;;;;;4181105;28;20055;-60
2022/01/21 07:47:29;;;;;;;0.00;0.00;;;2.80;80.60;;;;;;4180875;28;20045;-60
2022/01/21 07:49:51;;;;;;;0.00;0.00;;;2.90;80.50;;;;;;4209178;28;20040;-60
2022/01/21 07:52:15;;;;;;;0.00;0.00;;;3.10;79.90;;;;;;4180493;28;20565;-60
2022/01/21 07:54:37;;;;;;;0.00;0.00;;;3.00;79.80;;;;;;4180972;28;20049;-60
2022/01/21 07:57:02;;;;;;;0.00;0.00;;;3.00;79.80;;;;;;4177430;28;20075;-60
2022/01/21 07:59:24;;;;;;;0.00;0.00;;;3.00;79.70;;;;;;4179107;28;20100;-61
2022/01/21 08:01:46;;;;;;;0.00;0.00;;;2.80;80.10;;;;;;4148736;28;20439;-60
2022/01/21 08:04:10;;;;;;;0.00;0.00;;;2.80;80.30;;;;;;4183861;28;20091;-60
2022/01/21 08:06:33;;;;;;;0.00;0.00;;;2.80;80.10;;;;;;4180387;28;20498;-61
2022/01/21 08:08:57;;;;;;;0.00;0.00;;;3.00;80.00;;;;;;4170322;28;20053;-60
2022/01/21 08:11:19;;;;;;;0.00;0.00;;;3.10;79.60;;;;;;4177717;28;20091;-60
2022/01/21 08:13:42;;;;;;;0.00;0.00;;;3.30;79.20;;;;;;4177886;28;20041;-60
2022/01/21 08:16:05;;;;;;;0.00;0.00;;;3.40;78.70;;;;;;4162126;28;20079;-60
2022/01/21 08:18:28;;;;;;;0.00;0.00;;;3.50;78.50;;;;;;4149582;28;20165;-60
2022/01/21 08:20:50;;;;;;;0.00;0.00;;;3.50;78.40;;;;;;4163270;28;20568;-60
2022/01/21 08:23:13;;;;;;;0.00;0.00;;;3.50;78.10;;;;;;4150400;28;20189;-61
2022/01/21 08:25:36;;;;;;;0.00;0.00;;;3.60;77.60;;;;;;4150283;28;20069;-61
2022/01/21 08:27:58;;;;;;;0.00;0.00;;;3.60;77.50;;;;;;4149108;28;20054;-60
2022/01/21 08:30:22;;;;;;;0.00;0.00;;;3.70;77.40;;;;;;4163567;28;20056;-60
2022/01/21 08:32:45;;;;;;;0.00;0.00;;;4.10;77.10;;;;;;4163981;28;20046;-61
2022/01/21 08:35:08;;;;;;;0.00;0.00;;;4.50;76.30;;;;;;4178749;28;20045;-61
2022/01/21 08:37:31;;;;;;;0.00;0.00;;;5.20;75.40;;;;;;4180340;28;20060;-61
2022/01/21 08:39:53;;;;;;;0.00;0.00;;;6.00;74.00;;;;;;4180127;28;20048;-61
2022/01/21 08:42:15;;;;;;;0.00;0.00;;;6.70;71.90;;;;;;4179522;28;20080;-61
2022/01/21 08:44:38;;;;;;;0.00;0.00;;;7.10;69.20;;;;;;4180107;28;20045;-61
2022/01/21 08:47:00;;;;;;;0.00;0.00;;;7.50;67.30;;;;;;4180076;28;20052;-61
2022/01/21 08:49:33;;;;;;;0.00;0.00;;;7.80;65.80;;;;;;4180002;28;20055;-61
2022/01/21 08:51:57;;;;;;;0.00;0.00;;;8.10;64.60;;;;;;4179716;28;20587;-61
2022/01/21 08:54:21;;;;;;;0.00;0.00;;;8.10;62.40;;;;;;4179489;28;20044;-61
2022/01/21 08:56:44;;;;;;;0.00;0.00;;;8.20;61.80;;;;;;4180023;28;20051;-61
2022/01/21 08:59:07;;;;;;;0.00;0.00;;;8.40;60.30;;;;;;4179759;28;20045;-61
2022/01/21 09:01:29;;;;;;;0.00;0.00;;;8.70;59.60;;;;;;4179422;28;20049;-61
2022/01/21 09:03:51;;;;;;;0.00;0.00;;;9.00;59.30;;;;;;4179887;28;20127;-61
2022/01/21 09:06:18;;;;;;;0.00;0.00;;;9.30;58.30;;;;;;4179346;28;20057;-62
2022/01/21 09:08:41;;;;;;;0.00;0.00;;;9.10;58.60;;;;;;4190178;28;20071;-61
2022/01/21 09:11:04;;;;;;;0.00;0.00;;;8.80;58.20;;;;;;4188919;28;20793;-61
2022/01/21 09:13:30;;;;;;;0.00;0.00;;;8.70;58.30;;;;;;4179649;28;20051;-61
2022/01/21 09:15:54;;;;;;;0.00;0.00;;;9.00;57.80;;;;;;4179763;28;20135;-61
2022/01/21 09:18:19;;;;;;;0.00;0.00;;;9.20;57.00;;;;;;4179973;28;20044;-62
2022/01/21 09:20:41;;;;;;;0.00;0.00;;;9.10;56.30;;;;;;4195901;28;20043;-62
2022/01/21 09:23:05;;;;;;;0.00;0.00;;;8.60;56.30;;;;;;4196267;28;20470;-61
2022/01/21 09:25:28;;;;;;;0.00;0.00;;;8.00;57.10;;;;;;4185461;28;20049;-61
2022/01/21 09:27:50;;;;;;;0.00;0.00;;;7.50;57.80;;;;;;4179461;28;20065;-61
2022/01/21 09:30:12;;;;;;;0.00;0.00;;;6.90;59.10;;;;;;4165608;28;20041;-62
2022/01/21 09:32:35;;;;;;;0.00;0.00;;;6.80;59.70;;;;;;4178407;28;20060;-61
2022/01/21 09:34:57;;;;;;;0.00;0.00;;;6.90;59.90;;;;;;4168848;28;20059;-61
2022/01/21 09:37:19;;;;;;;0.00;0.00;;;7.20;60.30;;;;;;4176699;28;20048;-60
2022/01/21 09:39:43;;;;;;;0.00;0.00;;;7.60;60.00;;;;;;4176520;28;20052;-61
2022/01/21 09:42:07;;;;;;;0.00;0.00;;;7.60;60.10;;;;;;4176115;28;20045;-61
2022/01/21 09:44:30;;;;;;;0.00;0.00;;;8.10;59.50;;;;;;4164833;28;20077;-61
2022/01/21 09:46:56;;;;;;;0.00;0.00;;;8.00;58.40;;;;;;4207414;28;20036;-61
2022/01/21 09:51:45;;;;;;;0.00;0.00;;;7.90;57.80;;;;;;4178831;28;20053;-60
2022/01/21 09:54:07;;;;;;;0.00;0.00;;;7.20;58.40;;;;;;4178943;28;20045;-61
2022/01/21 09:56:30;;;;;;;0.00;0.00;;;6.90;59.10;;;;;;4178614;28;20045;-61
2022/01/21 09:58:53;;;;;;;0.00;0.00;;;6.90;59.70;;;;;;4192793;28;20067;-61
2022/01/21 10:01:18;;;;;;;0.00;0.00;;;7.60;59.50;;;;;;4192331;28;20044;-61
2022/01/21 10:03:44;;;;;;;0.00;0.00;;;8.30;58.70;;;;;;4178952;28;20044;-63
2022/01/21 10:06:07;;;;;;;0.00;0.00;;;9.20;57.90;;;;;;4178738;28;20409;-61
2022/01/21 10:08:31;;;;;;;0.00;0.00;;;9.90;55.00;;;;;;4187160;28;20056;-61
2022/01/21 10:10:53;;;;;;;0.00;0.00;;;10.40;54.70;;;;;;4195068;28;20053;-61
2022/01/21 10:13:19;;;;;;;0.00;0.00;;;11.00;53.40;;;;;;4195317;28;20074;-62
2022/01/21 10:15:41;;;;;;;0.00;0.00;;;11.10;52.00;;;;;;4195311;28;20047;-61
2022/01/21 10:18:06;;;;;;;0.00;0.00;;;11.10;50.80;;;;;;4181486;28;20099;-61
2022/01/21 10:20:32;;;;;;;0.00;0.00;;;11.00;51.80;;;;;;4194911;28;20123;-61
2022/01/21 10:23:07;;;;;;;0.00;0.00;;;10.60;51.40;;;;;;4194915;28;20045;-61
2022/01/21 10:25:31;;;;;;;0.00;0.00;;;10.50;51.80;;;;;;4181023;28;20049;-61
2022/01/21 10:28:17;;;;;;;0.00;0.00;;;11.10;50.80;;;;;;4208976;28;20084;-61
2022/01/21 10:30:40;;;;;;;0.00;0.00;;;10.90;49.80;;;;;;4181992;28;20075;-61
2022/01/21 10:33:23;;;;;;;0.00;0.00;;;11.10;49.50;;;;;;4194761;28;20066;-62
2022/01/21 10:35:48;;;;;;;0.00;0.00;;;11.80;48.50;;;;;;4194792;28;20045;-62
2022/01/21 10:38:24;;;;;;;0.00;0.00;;;12.10;47.70;;;;;;4208927;28;20109;-62
2022/01/21 10:40:46;;;;;;;0.00;0.00;;;12.10;47.00;;;;;;4194595;28;20044;-60
2022/01/21 10:43:14;;;;;;;0.00;0.00;;;11.30;47.30;;;;;;4208733;28;20048;-60
2022/01/21 10:45:52;;;;;;;0.00;0.00;;;10.70;48.40;;;;;;4194836;28;20070;-61
2022/01/21 10:48:14;;;;;;;0.00;0.00;;;11.20;48.10;;;;;;4180266;28;20484;-61
2022/01/21 10:50:37;;;;;;;0.00;0.00;;;11.50;47.30;;;;;;4178216;28;20052;-60
2022/01/21 10:52:59;;;;;;;0.00;0.00;;;12.10;47.70;;;;;;4178278;28;20079;-61
2022/01/21 10:55:33;;;;;;;0.00;0.00;;;12.40;46.20;;;;;;4178229;28;20048;-60
2022/01/21 10:58:14;;;;;;;0.00;0.00;;;12.20;45.20;;;;;;4178301;28;20049;-60
2022/01/21 11:00:38;;;;;;;0.00;0.00;;;10.80;46.60;;;;;;4185902;28;20045;-62
2022/01/21 11:03:15;;;;;;;0.00;0.00;;;11.00;47.50;;;;;;4205969;28;20079;-63
2022/01/21 11:05:46;;;;;;;0.00;0.00;;;11.60;46.70;;;;;;4178032;28;20045;-61
2022/01/21 11:08:10;;;;;;;0.00;0.00;;;11.00;47.80;;;;;;4170182;28;20536;-61
2022/01/21 11:10:33;;;;;;;0.00;0.00;;;11.50;47.90;;;;;;4194249;28;20409;-62
2022/01/21 11:12:55;;;;;;;0.00;0.00;;;12.40;45.30;;;;;;4202316;28;20056;-62
2022/01/21 11:15:20;;;;;;;0.00;0.00;;;12.00;44.40;;;;;;4192021;28;20044;-62
2022/01/21 11:18:02;;;;;;;0.00;0.00;;;10.10;45.30;;;;;;4178228;28;20045;-62
2022/01/21 11:20:37;;;;;;;0.00;0.00;;;8.20;48.80;;;;;;4194311;28;20099;-61
2022/01/21 11:23:00;;;;;;;0.00;0.00;;;7.60;50.60;;;;;;4208405;28;20055;-61
2022/01/21 11:25:48;;;;;;;0.00;0.00;;;7.90;50.30;;;;;;4194596;28;20044;-61
2022/01/21 11:28:21;;;;;;;0.00;0.00;;;8.40;50.10;;;;;;4180308;28;20049;-61
2022/01/21 11:30:44;;;;;;;0.00;0.00;;;9.40;48.90;;;;;;4208336;28;20075;-62
2022/01/21 11:33:07;;;;;;;0.00;0.00;;;10.10;47.30;;;;;;4172670;28;20132;-61
2022/01/21 11:35:31;;;;;;;0.00;0.00;;;9.90;46.50;;;;;;4188784;28;20064;-60
2022/01/21 11:37:54;;;;;;;0.00;0.00;;;9.40;46.80;;;;;;4194718;28;20086;-61
2022/01/21 11:40:16;;;;;;;0.00;0.00;;;9.00;47.30;;;;;;4177530;28;20080;-61
2022/01/21 11:42:40;;;;;;;0.00;0.00;;;8.80;47.90;;;;;;4177837;28;20048;-61
2022/01/21 11:45:18;;;;;;;0.00;0.00;;;8.70;48.20;;;;;;4199060;28;20044;-61
2022/01/21 11:48:00;;;;;;;0.00;0.00;;;8.50;48.10;;;;;;4194430;28;20049;-60
2022/01/21 11:50:23;;;;;;;0.00;0.00;;;8.60;48.50;;;;;;4193957;28;20480;-61
2022/01/21 11:52:45;;;;;;;0.00;0.00;;;8.80;48.40;;;;;;4194225;28;20054;-62
2022/01/21 11:55:08;;;;;;;0.00;0.00;;;9.00;48.50;;;;;;4194296;28;20052;-61
2022/01/21 11:57:31;;;;;;;0.00;0.00;;;8.70;48.00;;;;;;4197215;28;20063;-61
2022/01/21 12:00:16;;;;;;;0.00;0.00;;;8.40;48.50;;;;;;4206882;28;20056;-61
2022/01/21 12:02:48;;;;;;;0.00;0.00;;;8.40;48.40;;;;;;4163387;28;20469;-60
2022/01/21 12:05:11;;;;;;;0.00;0.00;;;8.40;48.20;;;;;;4164207;28;20380;-61
2022/01/21 12:07:33;;;;;;;0.00;0.00;;;8.20;48.30;;;;;;4180434;28;20489;-61
2022/01/21 12:10:06;;;;;;;0.00;0.00;;;8.10;48.70;;;;;;4197215;28;20421;-63
2022/01/21 12:20:51;;;;;;;0.00;0.00;;;8.00;49.00;;;;;;4196458;28;20516;-62
2022/01/21 12:23:21;;;;;;;0.00;0.00;;;8.10;48.90;;;;;;4196965;28;20052;-60
2022/01/21 12:26:08;;;;;;;0.00;0.00;;;8.10;48.60;;;;;;4196979;28;20075;-61
2022/01/21 12:28:31;;;;;;;0.00;0.00;;;8.00;48.70;;;;;;4196513;28;20052;-60
2022/01/21 12:30:55;;;;;;;0.00;0.00;;;7.90;49.00;;;;;;4193294;28;20053;-59
2022/01/21 12:36:15;;;;;;;0.00;0.00;;;7.30;49.90;;;;;;4179895;28;20052;-60
2022/01/21 12:41:04;;;;;;;0.00;0.00;;;7.00;51.20;;;;;;4173366;28;20049;-59
2022/01/21 12:43:47;;;;;;;0.00;0.00;;;6.70;51.40;;;;;;4174138;28;20124;-60
2022/01/21 12:46:26;;;;;;;0.00;0.00;;;6.80;51.60;;;;;;4179963;28;20085;-61
2022/01/21 12:48:50;;;;;;;0.00;0.00;;;6.90;51.50;;;;;;4179648;28;20095;-59
2022/01/21 12:57:00;;;;;;;0.00;0.00;;;6.80;50.10;;;;;;4193496;28;20041;-60
2022/01/21 12:59:29;;;;;;;0.00;0.00;;;6.90;50.50;;;;;;4180039;28;20445;-59
2022/01/21 13:01:53;;;;;;;0.00;0.00;;;7.00;50.70;;;;;;4179303;28;20159;-59
2022/01/21 13:04:26;;;;;;;0.00;0.00;;;7.10;50.60;;;;;;4179511;28;20514;-60
2022/01/21 13:06:55;;;;;;;0.00;0.00;;;7.00;50.40;;;;;;4179718;28;20494;-59
2022/01/21 13:09:23;;;;;;;0.00;0.00;;;6.80;50.50;;;;;;4194669;28;20493;-60
2022/01/21 13:11:55;;;;;;;0.00;0.00;;;7.00;50.50;;;;;;4209501;28;20044;-61
2022/01/21 13:17:00;;;;;;;0.00;0.00;;;6.70;50.80;;;;;;4190069;28;20045;-59
2022/01/21 13:19:22;;;;;;;0.00;0.00;;;6.50;51.10;;;;;;4189618;28;20460;-59
2022/01/21 13:21:47;;;;;;;0.00;0.00;;;6.40;51.50;;;;;;4209918;28;20052;-59
2022/01/21 13:24:25;;;;;;;0.00;0.00;;;6.40;51.90;;;;;;4163034;28;20042;-58
2022/01/21 13:26:51;;;;;;;0.00;0.00;;;6.20;52.00;;;;;;4162528;28;20041;-60
2022/01/21 13:29:14;;;;;;;0.00;0.00;;;6.20;52.20;;;;;;4176901;28;20090;-60
2022/01/21 13:31:46;;;;;;;0.00;0.00;;;6.40;52.00;;;;;;4162499;28;20065;-60
2022/01/21 13:34:14;;;;;;;0.00;0.00;;;6.40;51.60;;;;;;4162673;28;20392;-59
2022/01/21 13:36:46;;;;;;;0.00;0.00;;;6.40;51.30;;;;;;4162312;28;20079;-60
2022/01/21 13:39:14;;;;;;;0.00;0.00;;;6.50;51.10;;;;;;4162621;28;20049;-60
2022/01/21 13:41:59;;;;;;;0.00;0.00;;;6.50;50.60;;;;;;4162585;28;20545;-59
2022/01/21 13:44:48;;;;;;;0.00;0.00;;;6.40;50.10;;;;;;4162415;28;20045;-60
2022/01/21 13:47:33;;;;;;;0.00;0.00;;;6.40;49.60;;;;;;4162610;28;20052;-59
2022/01/21 13:49:58;;;;;;;0.00;0.00;;;6.40;49.10;;;;;;4162467;28;20072;-60
2022/01/21 13:52:32;;;;;;;0.00;0.00;;;6.40;48.70;;;;;;4162057;28;20128;-59
2022/01/21 13:54:55;;;;;;;0.00;0.00;;;6.40;48.70;;;;;;4176442;28;20048;-60
2022/01/21 13:57:26;;;;;;;0.00;0.00;;;6.60;48.90;;;;;;4162480;28;20415;-59
2022/01/21 13:59:53;;;;;;;0.00;0.00;;;6.50;49.50;;;;;;4162518;28;20545;-59
2022/01/21 14:02:17;;;;;;;0.00;0.00;;;6.50;49.10;;;;;;4190615;28;20041;-60
2022/01/21 14:04:53;;;;;;;0.00;0.00;;;6.40;49.30;;;;;;4178736;28;20127;-59
2022/01/21 14:07:30;;;;;;;0.00;0.00;;;6.40;49.60;;;;;;4178832;28;20069;-59
2022/01/21 14:09:53;;;;;;;0.00;0.00;;;6.30;49.70;;;;;;4162321;28;20120;-59
2022/01/21 14:12:16;;;;;;;0.00;0.00;;;6.30;49.90;;;;;;4161581;28;20041;-60